Time;durP1;ratioP1;P1;durP2;ratioP2;P2;SDS_P1;SDS_P2;PMS_P1;PMS_P2;Temp;Humidity;BMP_temperature;BMP_pressure;BME280_temperature;BME280_humidity;BME280_pressure;Samples;Min_cycle;Max_cycle;Signal;HPM_P1;HPM_P2
2022/12/06 00:01:22;;;;;;;;;50.50;34.25;;;;;7.02;56.10;101507.88;5065850;27;45429;-44
2022/12/06 00:03:51;;;;;;;;;40.50;28.00;;;;;7.01;56.13;101496.59;5076269;28;45317;-43
2022/12/06 00:06:18;;;;;;;;;41.50;34.50;;;;;7.01;56.21;101490.50;5079710;28;45465;-42
2022/12/06 00:08:45;;;;;;;;;36.25;27.50;;;;;6.99;56.49;101493.13;5062248;27;48242;-44
2022/12/06 00:11:13;;;;;;;;;41.50;31.50;;;;;6.99;56.42;101492.25;5081018;27;45477;-45
2022/12/06 00:13:39;;;;;;;;;39.00;34.75;;;;;6.99;56.38;101498.34;5077230;27;45515;-43
2022/12/06 00:16:07;;;;;;;;;39.75;34.75;;;;;7.01;56.40;101498.31;5079662;27;45482;-41
2022/12/06 00:18:34;;;;;;;;;43.50;34.75;;;;;7.04;56.55;101493.13;5075711;27;45435;-41
2022/12/06 00:21:07;;;;;;;;;46.75;35.50;;;;;7.08;56.58;101491.38;5068378;28;45648;-42
2022/12/06 00:23:35;;;;;;;;;46.75;35.50;;;;;7.08;56.30;101486.19;5071017;27;46910;-44
2022/12/06 00:26:01;;;;;;;;;40.00;30.00;;;;;7.10;56.38;101484.44;5070078;27;45605;-46
2022/12/06 00:28:26;;;;;;;;;40.50;31.00;;;;;7.10;56.55;101481.84;5076756;27;46033;-42
2022/12/06 00:30:59;;;;;;;;;42.25;34.25;;;;;7.08;56.57;101471.41;5075938;27;45417;-42
2022/12/06 00:33:25;;;;;;;;;38.25;28.00;;;;;7.09;56.55;101470.56;5079027;28;45433;-41
2022/12/06 00:35:58;;;;;;;;;45.75;35.75;;;;;7.11;56.36;101475.78;5078692;27;45464;-44
2022/12/06 00:38:24;;;;;;;;;47.50;35.75;;;;;7.12;56.50;101472.28;5076467;28;45599;-41
2022/12/06 00:41:03;;;;;;;;;35.25;25.25;;;;;7.15;56.26;101472.28;5072143;28;45578;-46
2022/12/06 00:43:28;;;;;;;;;43.00;30.75;;;;;7.15;56.23;101467.09;5068266;27;45513;-44
2022/12/06 00:45:54;;;;;;;;;44.75;33.75;;;;;7.15;56.55;101470.56;5076397;28;45407;-47
2022/12/06 00:48:19;;;;;;;;;40.25;30.50;;;;;7.15;56.28;101469.69;5080817;27;45571;-43
2022/12/06 00:50:45;;;;;;;;;43.00;34.25;;;;;7.13;56.50;101469.69;5068138;27;45340;-43
2022/12/06 00:53:10;;;;;;;;;38.25;28.75;;;;;7.12;56.60;101461.88;5075534;27;45232;-43
2022/12/06 00:55:35;;;;;;;;;34.50;29.25;;;;;7.11;56.42;101463.63;5068643;27;49671;-41
2022/12/06 00:58:01;;;;;;;;;42.50;34.75;;;;;7.10;56.64;101459.31;5077010;27;58318;-43
2022/12/06 01:00:26;;;;;;;;;41.50;33.25;;;;;7.12;56.63;101462.75;5073493;28;52637;-45
2022/12/06 01:02:52;;;;;;;;;47.75;36.50;;;;;7.12;56.60;101462.75;5077911;27;51668;-42
2022/12/06 01:05:17;;;;;;;;;38.25;31.25;;;;;7.12;56.69;101457.56;5073195;27;45535;-42
2022/12/06 01:07:43;;;;;;;;;40.75;29.75;;;;;7.11;56.76;101462.75;5085037;27;45555;-42
2022/12/06 01:10:09;;;;;;;;;38.00;30.25;;;;;7.11;56.80;101466.22;5069233;27;45431;-44
2022/12/06 01:12:34;;;;;;;;;41.75;33.00;;;;;7.11;56.78;101460.16;5071721;28;45428;-44
2022/12/06 01:14:59;;;;;;;;;43.25;35.50;;;;;7.11;56.65;101458.41;5076182;27;46021;-43
2022/12/06 01:17:25;;;;;;;;;43.00;30.50;;;;;7.11;56.76;101462.75;5071251;28;45820;-45
2022/12/06 01:19:50;;;;;;;;;48.75;35.75;;;;;7.10;56.78;101461.91;5075817;28;45329;-42
2022/12/06 01:22:15;;;;;;;;;39.50;32.25;;;;;7.10;56.97;101458.41;5069633;27;45493;-41
2022/12/06 01:24:41;;;;;;;;;40.50;31.25;;;;;7.10;56.88;101459.31;5078176;27;59947;-43
2022/12/06 01:27:06;;;;;;;;;40.50;31.25;;;;;7.12;56.93;101461.88;5074071;27;45436;-45
2022/12/06 01:29:32;;;;;;;;;40.00;33.00;;;;;7.12;57.13;101460.16;5075950;28;45247;-42
2022/12/06 01:31:57;;;;;;;;;43.75;30.75;;;;;7.10;56.98;101464.50;5068260;28;45456;-42
2022/12/06 01:34:22;;;;;;;;;35.50;30.50;;;;;7.08;56.98;101458.41;5072653;27;60695;-44
2022/12/06 01:36:48;;;;;;;;;41.00;30.00;;;;;7.09;57.06;101464.50;5074548;27;45282;-44
2022/12/06 01:39:14;;;;;;;;;50.75;32.25;;;;;7.09;57.19;101459.31;5072296;27;65249;-42
2022/12/06 01:41:39;;;;;;;;;39.50;31.75;;;;;7.09;57.25;101462.75;5055601;27;45296;-42
2022/12/06 01:44:05;;;;;;;;;42.00;35.00;;;;;7.10;57.30;101461.00;5079820;27;45671;-43
2022/12/06 01:46:44;;;;;;;;;41.50;30.75;;;;;7.10;57.26;101459.31;5070136;27;47464;-42
2022/12/06 01:49:12;;;;;;;;;37.75;25.25;;;;;7.10;57.31;101455.81;5080878;27;47474;-43
2022/12/06 01:51:41;;;;;;;;;30.00;26.75;;;;;7.09;57.41;101452.34;5076593;27;45378;-43
2022/12/06 01:54:09;;;;;;;;;30.25;27.25;;;;;7.11;57.30;101458.41;5079293;27;45726;-42
2022/12/06 01:56:35;;;;;;;;;37.00;32.00;;;;;7.14;57.39;101465.38;5093376;27;45548;-44
2022/12/06 01:59:00;;;;;;;;;39.25;29.25;;;;;7.16;57.43;101459.28;5086292;27;45385;-45
2022/12/06 02:01:27;;;;;;;;;39.50;31.25;;;;;7.15;57.45;101464.47;5077248;27;45471;-43
2022/12/06 02:03:55;;;;;;;;;39.00;30.50;;;;;7.14;57.37;101466.22;5077555;27;45499;-44
2022/12/06 02:06:20;;;;;;;;;40.75;30.00;;;;;7.12;57.45;101473.19;5050477;28;46415;-42
2022/12/06 02:08:46;;;;;;;;;41.00;28.75;;;;;7.12;57.54;101475.78;5087231;27;60873;-45
2022/12/06 02:11:11;;;;;;;;;40.00;30.75;;;;;7.13;57.56;101466.22;5092964;27;45437;-42
2022/12/06 02:13:37;;;;;;;;;35.00;27.25;;;;;7.13;57.57;101458.41;5070974;27;45445;-44
2022/12/06 02:16:21;;;;;;;;;40.25;34.00;;;;;7.17;57.58;101468.84;5065264;27;45473;-43
2022/12/06 02:19:01;;;;;;;;;35.75;30.00;;;;;7.19;57.58;101463.63;5072870;27;45373;-43
2022/12/06 02:21:50;;;;;;;;;36.25;30.25;;;;;7.21;57.65;101469.69;5072989;27;45316;-46
2022/12/06 02:24:28;;;;;;;;;34.00;27.75;;;;;7.23;57.52;101471.41;5066227;27;45793;-44
2022/12/06 02:27:22;;;;;;;;;33.00;24.50;;;;;7.21;57.54;101467.09;5070835;27;47187;-42
2022/12/06 02:30:24;;;;;;;;;31.25;24.75;;;;;7.22;57.72;101476.63;5072133;28;45914;-45
2022/12/06 02:33:15;;;;;;;;;34.75;29.75;;;;;7.20;57.50;101471.41;5071521;27;45481;-43
2022/12/06 02:35:47;;;;;;;;;39.00;29.75;;;;;7.21;57.62;101475.75;5083678;27;45414;-42
2022/12/06 02:38:33;;;;;;;;;32.50;28.75;;;;;7.23;57.64;101470.56;5072371;27;46351;-45
2022/12/06 02:41:02;;;;;;;;;44.50;31.25;;;;;7.25;57.63;101462.75;5075726;27;45491;-45
2022/12/06 02:43:35;;;;;;;;;33.25;27.50;;;;;7.25;57.79;101470.56;5090616;27;45405;-44
2022/12/06 02:46:02;;;;;;;;;20.50;15.50;;;;;7.22;57.85;101468.81;5073857;27;45446;-42
2022/12/06 02:48:28;;;;;;;;;34.25;24.25;;;;;7.16;57.84;101461.88;5091935;27;51670;-42
2022/12/06 02:51:07;;;;;;;;;37.00;27.75;;;;;7.15;57.84;101460.16;5088074;27;45397;-45
2022/12/06 02:53:36;;;;;;;;;34.00;22.50;;;;;7.14;57.97;101461.03;5075053;27;46003;-44
2022/12/06 02:56:01;;;;;;;;;33.00;29.25;;;;;7.12;58.12;101459.28;5075048;28;45349;-44
2022/12/06 02:58:27;;;;;;;;;34.25;23.75;;;;;7.11;58.24;101452.34;5071045;28;55340;-42
2022/12/06 03:00:56;;;;;;;;;32.75;25.00;;;;;7.08;58.15;101455.81;5065684;27;60289;-45
2022/12/06 03:03:41;;;;;;;;;43.75;28.00;;;;;7.09;58.24;101454.09;5068840;27;45631;-44
2022/12/06 03:06:25;;;;;;;;;40.75;29.00;;;;;7.09;58.24;101467.97;5090870;27;46105;-42
2022/12/06 03:09:05;;;;;;;;;38.25;30.00;;;;;7.10;58.09;101459.31;5071983;27;46684;-45
2022/12/06 03:11:50;;;;;;;;;38.00;29.50;;;;;7.09;58.24;101456.69;5069149;27;45737;-43
2022/12/06 03:14:21;;;;;;;;;40.50;28.50;;;;;7.14;58.15;101468.84;5076610;28;45510;-43
2022/12/06 03:16:50;;;;;;;;;40.00;30.75;;;;;7.13;58.41;101464.47;5069217;28;45530;-45
2022/12/06 03:19:23;;;;;;;;;36.75;31.00;;;;;7.13;58.71;101458.41;5072758;27;45610;-46
2022/12/06 03:22:00;;;;;;;;;37.75;32.75;;;;;7.16;58.57;101463.63;5084472;27;45824;-44
2022/12/06 03:24:26;;;;;;;;;42.00;30.75;;;;;7.16;58.41;101467.09;5070805;27;45521;-45
2022/12/06 03:26:54;;;;;;;;;45.25;29.75;;;;;7.15;58.60;101465.38;5068253;27;45385;-47
2022/12/06 03:29:21;;;;;;;;;51.75;33.00;;;;;7.14;58.47;101462.75;5071937;27;57778;-44
2022/12/06 03:31:47;;;;;;;;;40.25;28.25;;;;;7.16;58.58;101466.22;5074169;27;45247;-44
2022/12/06 03:34:20;;;;;;;;;44.00;33.50;;;;;7.14;58.37;101466.22;5077107;27;47629;-42
2022/12/06 03:36:47;;;;;;;;;51.50;36.50;;;;;7.14;58.70;101470.56;5073376;27;45873;-42
2022/12/06 03:39:17;;;;;;;;;34.50;31.25;;;;;7.12;58.39;101467.97;5094371;27;45563;-42
2022/12/06 03:41:49;;;;;;;;;46.50;35.50;;;;;7.10;58.72;101461.91;5053330;28;46085;-42
2022/12/06 03:44:14;;;;;;;;;46.75;31.50;;;;;7.10;58.75;101467.09;5072581;27;45639;-43
2022/12/06 03:46:43;;;;;;;;;42.00;32.25;;;;;7.12;58.74;101470.56;5078360;27;66052;-43
2022/12/06 03:49:19;;;;;;;;;41.25;31.00;;;;;7.10;58.92;101454.09;5063769;27;47433;-43
2022/12/06 03:51:45;;;;;;;;;41.00;32.75;;;;;7.12;58.83;101464.47;5087532;27;45807;-46
2022/12/06 03:54:11;;;;;;;;;39.75;28.50;;;;;7.15;58.64;101461.88;5082023;27;45571;-47
2022/12/06 03:56:37;;;;;;;;;45.50;34.00;;;;;7.19;59.09;101463.63;5080730;27;45386;-45
2022/12/06 03:59:04;;;;;;;;;42.25;34.25;;;;;7.19;58.93;101455.81;5074876;27;46163;-48
2022/12/06 04:01:29;;;;;;;;;48.75;34.25;;;;;7.16;58.79;101454.06;5071812;27;45369;-43
2022/12/06 04:03:54;;;;;;;;;44.25;30.50;;;;;7.18;58.95;101462.75;5090115;27;62649;-44
2022/12/06 04:06:20;;;;;;;;;48.75;29.50;;;;;7.19;58.74;101459.28;5067922;28;49144;-43
2022/12/06 04:08:45;;;;;;;;;43.25;33.50;;;;;7.18;58.99;101469.69;5072835;27;65277;-47
2022/12/06 04:11:10;;;;;;;;;35.25;29.00;;;;;7.18;58.85;101460.13;5079213;27;66698;-45
2022/12/06 04:13:36;;;;;;;;;36.50;30.00;;;;;7.18;58.97;101465.34;5070444;27;54136;-45
2022/12/06 04:16:02;;;;;;;;;45.25;31.25;;;;;7.16;59.16;101466.22;5066914;27;45404;-45
2022/12/06 04:18:28;;;;;;;;;45.50;31.25;;;;;7.14;59.03;101461.03;5081714;27;47489;-42
2022/12/06 04:23:45;;;;;;;;;40.75;30.50;;;;;7.12;59.04;101467.09;5073721;27;45356;-43
2022/12/06 04:26:13;;;;;;;;;36.25;25.50;;;;;7.10;59.17;101467.09;5075416;27;45470;-43
2022/12/06 04:39:35;;;;;;;;;40.25;30.50;;;;;7.11;59.38;101461.03;5074308;27;45259;-42
2022/12/06 04:44:44;;;;;;;;;53.25;34.75;;;;;7.13;59.40;101459.28;5076643;27;45296;-44
2022/12/06 04:47:09;;;;;;;;;40.75;31.75;;;;;7.14;59.57;101454.97;5073464;27;45446;-43
2022/12/06 04:49:36;;;;;;;;;41.25;28.50;;;;;7.14;59.42;101457.56;5069026;27;46892;-43
2022/12/06 04:52:05;;;;;;;;;44.75;28.75;;;;;7.12;59.74;101454.94;5072087;27;46050;-47
2022/12/06 04:54:31;;;;;;;;;40.75;28.25;;;;;7.07;59.71;101451.50;5068635;27;45467;-45
2022/12/06 04:56:57;;;;;;;;;29.75;26.50;;;;;7.06;59.59;101446.28;5076441;27;45577;-43
2022/12/06 04:59:23;;;;;;;;;53.25;35.00;;;;;7.04;59.67;101452.34;5069501;27;45384;-46
2022/12/06 05:01:49;;;;;;;;;40.00;32.75;;;;;7.02;59.50;101448.88;5074043;27;45443;-45
2022/12/06 05:04:14;;;;;;;;;38.75;31.00;;;;;7.04;60.12;101448.88;5068809;27;45494;-47
2022/12/06 05:06:39;;;;;;;;;48.00;36.25;;;;;7.01;59.83;101439.34;5071180;27;45501;-42
2022/12/06 05:09:05;;;;;;;;;40.50;31.75;;;;;7.00;59.85;101447.16;5076177;27;46229;-46
2022/12/06 05:11:30;;;;;;;;;40.00;27.00;;;;;6.97;59.80;101436.75;5086044;27;72497;-45
2022/12/06 05:13:55;;;;;;;;;45.50;31.00;;;;;6.94;59.89;101437.63;5067757;27;61805;-45
2022/12/06 05:16:21;;;;;;;;;38.50;28.75;;;;;6.92;60.04;101441.94;5075766;27;45293;-45
2022/12/06 05:18:46;;;;;;;;;29.50;22.50;;;;;6.92;59.79;101439.34;5075094;27;47149;-47
2022/12/06 05:21:20;;;;;;;;;38.25;30.50;;;;;6.95;59.96;101433.28;5076026;27;68547;-43
2022/12/06 05:23:45;;;;;;;;;44.75;28.75;;;;;6.98;59.99;101434.16;5073258;28;45256;-43
2022/12/06 05:26:14;;;;;;;;;35.25;28.00;;;;;7.00;59.83;101427.19;5068911;28;67825;-47
2022/12/06 05:28:40;;;;;;;;;36.75;28.00;;;;;7.04;59.99;101428.91;5066177;27;46179;-44
2022/12/06 05:31:06;;;;;;;;;43.50;30.75;;;;;7.06;59.79;101436.72;5072093;27;45238;-42
2022/12/06 05:33:31;;;;;;;;;44.50;31.50;;;;;7.11;59.73;101439.34;5075579;27;45472;-43
2022/12/06 05:35:57;;;;;;;;;36.75;29.25;;;;;7.14;59.72;101428.94;5078541;28;62136;-44
2022/12/06 05:38:22;;;;;;;;;34.25;26.25;;;;;7.17;59.85;101429.78;5074828;27;69576;-44
2022/12/06 05:40:48;;;;;;;;;39.00;27.00;;;;;7.19;59.72;101427.19;5072103;27;64503;-44
2022/12/06 05:43:14;;;;;;;;;30.25;25.00;;;;;7.20;59.78;101423.69;5067623;27;45462;-43
2022/12/06 05:45:40;;;;;;;;;41.50;29.00;;;;;7.21;59.65;101425.44;5076338;27;45455;-43
2022/12/06 05:48:05;;;;;;;;;36.75;24.75;;;;;7.24;59.72;101430.63;5079208;27;46174;-42
2022/12/06 05:50:31;;;;;;;;;34.00;26.25;;;;;7.23;59.62;101429.75;5075132;27;46218;-42
2022/12/06 05:52:58;;;;;;;;;41.75;25.50;;;;;7.21;59.88;101422.84;5068971;27;47179;-42
2022/12/06 05:55:24;;;;;;;;;30.75;24.75;;;;;7.20;59.71;101421.09;5077168;27;45450;-43
2022/12/06 05:57:49;;;;;;;;;38.50;30.00;;;;;7.22;59.52;101424.56;5068456;27;46171;-42
2022/12/06 06:00:16;;;;;;;;;33.50;22.25;;;;;7.22;59.70;101427.16;5074095;27;45365;-44
2022/12/06 06:02:42;;;;;;;;;40.50;22.25;;;;;7.23;59.70;101421.94;5076137;27;45311;-42
2022/12/06 06:05:07;;;;;;;;;35.25;28.00;;;;;7.23;59.68;101424.56;5072779;27;45462;-44
2022/12/06 06:07:32;;;;;;;;;31.00;24.00;;;;;7.27;59.67;101433.22;5068577;28;47135;-43
2022/12/06 06:09:58;;;;;;;;;38.00;29.25;;;;;7.29;59.55;101430.63;5073567;27;64737;-47
2022/12/06 06:12:23;;;;;;;;;29.00;23.75;;;;;7.30;59.64;101433.22;5068809;28;45544;-46
2022/12/06 06:14:49;;;;;;;;;35.25;28.00;;;;;7.30;59.52;101433.22;5072198;28;45440;-42
2022/12/06 06:17:14;;;;;;;;;34.75;25.25;;;;;7.31;59.48;101431.47;5074773;27;48083;-42
2022/12/06 06:19:40;;;;;;;;;27.00;20.50;;;;;7.32;59.69;101433.22;5078271;27;45418;-45
2022/12/06 06:22:05;;;;;;;;;29.75;23.75;;;;;7.32;59.76;101434.09;5068262;27;45434;-43
2022/12/06 06:24:38;;;;;;;;;38.50;29.25;;;;;7.33;59.65;101433.22;5067457;27;45449;-44
2022/12/06 06:27:04;;;;;;;;;35.50;24.75;;;;;7.33;59.60;101434.94;5073197;27;45459;-46
2022/12/06 06:29:29;;;;;;;;;31.50;25.00;;;;;7.33;59.58;101432.34;5070850;27;45391;-42
2022/12/06 06:31:55;;;;;;;;;30.75;24.75;;;;;7.33;59.67;101438.44;5068502;27;45280;-43
2022/12/06 06:34:20;;;;;;;;;37.00;25.00;;;;;7.34;59.70;101434.09;5079546;27;45437;-44
2022/12/06 06:36:45;;;;;;;;;30.00;26.75;;;;;7.33;59.62;101440.16;5067868;27;66908;-43
2022/12/06 06:39:11;;;;;;;;;35.25;23.25;;;;;7.34;59.82;101437.53;5067794;28;45553;-43
2022/12/06 06:41:36;;;;;;;;;33.50;27.00;;;;;7.35;59.73;101443.66;5085730;27;45524;-43
2022/12/06 06:44:02;;;;;;;;;25.75;24.50;;;;;7.36;59.78;101441.00;5092008;27;55891;-42
2022/12/06 06:46:27;;;;;;;;;33.25;27.25;;;;;7.38;59.78;101448.81;5070769;27;45504;-42
2022/12/06 06:48:52;;;;;;;;;35.50;25.75;;;;;7.36;60.04;101450.56;5087141;27;67713;-43
2022/12/06 06:51:18;;;;;;;;;34.00;28.00;;;;;7.34;59.90;101447.97;5081840;27;45468;-42
2022/12/06 06:53:43;;;;;;;;;34.75;26.75;;;;;7.37;59.87;101454.91;5065687;27;65842;-43
2022/12/06 06:56:09;;;;;;;;;44.75;29.50;;;;;7.38;59.96;101448.81;5068296;27;59894;-42
2022/12/06 06:58:34;;;;;;;;;35.75;25.50;;;;;7.38;60.11;101448.81;5067990;27;45480;-42
2022/12/06 07:01:01;;;;;;;;;38.50;30.25;;;;;7.40;59.83;101452.28;5074667;27;64776;-42
2022/12/06 07:03:27;;;;;;;;;30.00;22.75;;;;;7.41;59.95;101454.03;5083448;27;45295;-42
2022/12/06 07:05:59;;;;;;;;;35.75;30.00;;;;;7.43;60.08;101446.22;5078484;27;45803;-43
2022/12/06 07:08:25;;;;;;;;;32.00;27.25;;;;;7.43;59.91;101449.69;5074961;28;45908;-42
2022/12/06 07:10:50;;;;;;;;;38.50;25.25;;;;;7.45;60.11;101445.34;5074458;27;45449;-43
2022/12/06 07:13:21;;;;;;;;;48.00;29.25;;;;;7.47;60.12;101445.34;5078781;27;65458;-42
2022/12/06 07:15:46;;;;;;;;;40.75;30.25;;;;;7.48;60.29;101445.34;5079411;27;47140;-42
2022/12/06 07:18:12;;;;;;;;;31.25;20.50;;;;;7.45;60.03;101441.88;5077239;27;45381;-43
2022/12/06 07:20:37;;;;;;;;;27.00;20.75;;;;;7.45;60.18;101442.72;5068074;27;57729;-43
2022/12/06 07:23:03;;;;;;;;;35.75;29.75;;;;;7.44;60.24;101440.13;5076044;27;55818;-43
2022/12/06 07:25:28;;;;;;;;;41.25;28.75;;;;;7.45;60.27;101440.13;5069986;27;46370;-50
2022/12/06 07:27:54;;;;;;;;;36.00;26.25;;;;;7.46;60.17;101436.66;5078409;27;56317;-42
2022/12/06 07:30:19;;;;;;;;;40.50;30.00;;;;;7.47;60.35;101437.53;5077487;27;45208;-42
2022/12/06 07:32:45;;;;;;;;;39.00;29.00;;;;;7.48;60.38;101441.88;5093735;27;45251;-41
2022/12/06 07:35:10;;;;;;;;;40.25;26.25;;;;;7.48;60.54;101447.94;5092197;27;47039;-42
2022/12/06 07:37:35;;;;;;;;;40.75;29.00;;;;;7.48;60.70;101453.16;5073891;28;52303;-43
2022/12/06 07:40:01;;;;;;;;;43.75;29.50;;;;;7.46;60.50;101436.66;5072241;27;45418;-42
2022/12/06 07:45:12;;;;;;;;;44.00;32.50;;;;;7.50;60.31;101445.34;5073353;28;45682;-42
2022/12/06 07:47:40;;;;;;;;;39.00;28.00;;;;;7.50;60.55;101446.19;5076906;27;45495;-40
2022/12/06 07:50:08;;;;;;;;;39.50;32.00;;;;;7.52;60.75;101447.03;5078180;28;45509;-40
2022/12/06 07:52:35;;;;;;;;;43.00;32.50;;;;;7.52;60.61;101444.44;5074509;27;45657;-39
2022/12/06 07:55:00;;;;;;;;;47.00;34.00;;;;;7.52;60.57;101447.03;5096262;27;47287;-40
2022/12/06 07:57:26;;;;;;;;;48.00;35.25;;;;;7.54;60.77;101440.13;5073875;27;45362;-39
2022/12/06 07:59:51;;;;;;;;;51.00;36.50;;;;;7.56;61.07;101442.69;5074904;27;45387;-39
2022/12/06 08:02:19;;;;;;;;;42.50;32.75;;;;;7.56;60.70;101456.59;5075635;27;70762;-46
2022/12/06 08:04:44;;;;;;;;;44.00;30.25;;;;;7.56;60.87;101455.72;5071678;27;45548;-44
2022/12/06 08:07:10;;;;;;;;;43.25;35.25;;;;;7.58;60.68;101451.41;5067929;27;53425;-41
2022/12/06 08:09:35;;;;;;;;;49.25;32.50;;;;;7.58;60.84;101449.66;5072902;27;45312;-41
2022/12/06 08:12:00;;;;;;;;;59.25;38.25;;;;;7.59;60.86;101455.72;5071505;28;63898;-42
2022/12/06 08:14:26;;;;;;;;;50.75;35.75;;;;;7.59;61.09;101459.19;5066935;27;69105;-40
2022/12/06 08:16:51;;;;;;;;;60.50;39.50;;;;;7.61;60.79;101467.00;5086527;27;45720;-44
2022/12/06 08:19:17;;;;;;;;;52.00;38.25;;;;;7.62;60.68;101466.13;5080519;27;45419;-40
2022/12/06 08:21:42;;;;;;;;;51.50;36.75;;;;;7.60;60.61;101471.34;5074527;28;45487;-43
2022/12/06 08:24:08;;;;;;;;;56.75;41.00;;;;;7.60;60.78;101476.56;5089322;27;61829;-41
2022/12/06 08:26:35;;;;;;;;;54.50;37.00;;;;;7.58;60.76;101469.63;5067026;27;45278;-41
2022/12/06 08:29:01;;;;;;;;;57.25;41.00;;;;;7.63;60.85;101486.09;5077771;27;45451;-41
2022/12/06 08:31:26;;;;;;;;;52.75;37.25;;;;;7.62;60.58;101481.75;5071155;27;45451;-43
2022/12/06 08:33:52;;;;;;;;;55.00;41.00;;;;;7.61;60.61;101480.00;5072127;27;45437;-41
2022/12/06 08:36:19;;;;;;;;;51.00;37.25;;;;;7.62;60.50;101478.31;5074056;27;45550;-41
2022/12/06 08:38:46;;;;;;;;;54.00;38.75;;;;;7.62;60.84;101486.97;5071431;27;45564;-42
2022/12/06 08:43:57;;;;;;;;;54.75;37.00;;;;;7.64;60.84;101490.44;5067129;28;45575;-41
2022/12/06 08:46:23;;;;;;;;;56.50;37.50;;;;;7.69;60.95;101493.03;5061003;28;45403;-42
2022/12/06 08:48:48;;;;;;;;;57.00;40.50;;;;;7.69;60.81;101506.94;5071595;28;54837;-41
2022/12/06 08:51:14;;;;;;;;;49.00;36.00;;;;;7.67;60.92;101505.22;5073779;27;45471;-41
2022/12/06 08:53:39;;;;;;;;;48.00;38.00;;;;;7.67;61.19;101503.47;5064423;28;66372;-43
2022/12/06 08:56:05;;;;;;;;;50.75;35.25;;;;;7.68;60.85;101505.19;5076586;27;45298;-41
2022/12/06 08:58:30;;;;;;;;;55.75;37.50;;;;;7.70;61.03;101500.84;5072900;28;45285;-42
2022/12/06 09:00:56;;;;;;;;;51.00;37.00;;;;;7.71;61.07;101506.94;5062184;28;71708;-46
2022/12/06 09:03:21;;;;;;;;;44.50;34.75;;;;;7.70;61.24;101510.38;5080373;27;46114;-42
2022/12/06 09:05:46;;;;;;;;;49.50;36.50;;;;;7.69;61.65;101508.66;5086979;27;66005;-43
2022/12/06 09:08:12;;;;;;;;;48.25;36.25;;;;;7.66;61.26;101506.06;5080849;27;52487;-41
2022/12/06 09:10:37;;;;;;;;;42.50;34.25;;;;;7.63;60.89;101508.66;5091548;27;45831;-41
2022/12/06 09:13:03;;;;;;;;;50.25;35.75;;;;;7.56;60.92;101513.00;5080302;27;72168;-41
2022/12/06 09:15:28;;;;;;;;;47.00;37.25;;;;;7.54;61.26;101509.56;5074668;27;64231;-43
2022/12/06 09:17:53;;;;;;;;;48.75;34.50;;;;;7.56;61.65;101518.22;5076037;27;45354;-42
2022/12/06 09:20:19;;;;;;;;;55.75;37.50;;;;;7.56;61.58;101520.81;5067160;27;65045;-42
2022/12/06 09:22:44;;;;;;;;;53.25;38.50;;;;;7.57;61.44;101517.38;5068490;27;62104;-42
2022/12/06 09:25:10;;;;;;;;;49.25;36.25;;;;;7.59;61.65;101519.09;5073335;28;63097;-41
2022/12/06 09:27:35;;;;;;;;;48.25;38.00;;;;;7.61;61.51;101519.09;5072654;28;45381;-42
2022/12/06 09:30:01;;;;;;;;;53.50;36.75;;;;;7.62;61.42;101533.00;5061333;27;51469;-41
2022/12/06 09:32:26;;;;;;;;;52.75;39.50;;;;;7.62;61.46;101523.44;5074284;27;47122;-42
2022/12/06 09:34:51;;;;;;;;;53.25;37.75;;;;;7.64;61.51;101524.31;5069580;28;67573;-41
2022/12/06 09:37:17;;;;;;;;;31.50;20.50;;;;;7.64;61.62;101526.91;5074403;27;45314;-41
2022/12/06 09:39:50;;;;;;;;;50.75;33.75;;;;;7.63;61.73;101513.88;5078779;27;45263;-41
2022/12/06 09:42:34;;;;;;;;;50.75;38.00;;;;;7.63;61.58;101527.75;5070308;28;46156;-42
2022/12/06 09:45:20;;;;;;;;;49.75;34.50;;;;;7.62;61.68;101527.78;5083040;27;45264;-43
2022/12/06 09:48:06;;;;;;;;;51.75;37.25;;;;;7.58;61.65;101533.00;5065961;28;45281;-40
2022/12/06 09:50:32;;;;;;;;;62.75;37.50;;;;;7.60;61.61;101530.41;5085077;27;45481;-41
2022/12/06 09:53:12;;;;;;;;;49.75;35.25;;;;;7.58;61.72;101525.19;5064851;28;46223;-41
2022/12/06 09:55:46;;;;;;;;;57.00;37.75;;;;;7.58;61.68;101535.59;5067564;27;45406;-40
2022/12/06 09:58:49;;;;;;;;;46.75;34.25;;;;;7.56;61.96;101532.13;5068771;28;45259;-41
2022/12/06 10:01:14;;;;;;;;;49.25;35.25;;;;;7.56;62.42;101534.75;5067123;28;45569;-41
2022/12/06 10:03:48;;;;;;;;;59.75;41.00;;;;;7.55;62.68;101542.56;5080402;27;45409;-40
2022/12/06 10:06:17;;;;;;;;;46.75;34.00;;;;;7.54;62.83;101533.88;5068192;28;45479;-41
2022/12/06 10:09:02;;;;;;;;;53.00;37.00;;;;;7.56;62.49;101536.47;5082653;27;45366;-42
2022/12/06 10:11:39;;;;;;;;;49.50;37.25;;;;;7.58;62.41;101535.59;5084961;27;45307;-41
2022/12/06 10:14:21;;;;;;;;;42.25;33.00;;;;;7.61;62.13;101529.50;5066137;28;47334;-40
2022/12/06 10:17:00;;;;;;;;;45.00;32.75;;;;;7.62;62.52;101536.47;5086105;27;45279;-40
2022/12/06 10:19:44;;;;;;;;;39.75;32.50;;;;;7.62;62.44;101531.25;5069527;28;45743;-40
2022/12/06 10:22:40;;;;;;;;;35.00;27.25;;;;;7.64;62.22;101529.50;5072501;27;45603;-41
2022/12/06 10:25:22;;;;;;;;;42.25;31.75;;;;;7.64;62.18;101528.66;5075972;28;45582;-41
2022/12/06 10:28:14;;;;;;;;;47.50;34.50;;;;;7.63;62.27;101521.69;5076855;27;45430;-46
2022/12/06 10:30:49;;;;;;;;;52.25;36.00;;;;;7.67;62.76;101526.91;5070443;28;45350;-43
2022/12/06 10:33:27;;;;;;;;;48.50;35.50;;;;;7.70;62.70;101531.22;5078874;28;45419;-41
2022/12/06 10:35:57;;;;;;;;;47.00;37.75;;;;;7.70;62.27;101528.63;5085608;27;47872;-44
2022/12/06 10:38:36;;;;;;;;;47.25;34.25;;;;;7.68;62.59;101536.44;5079415;27;45817;-43
2022/12/06 10:41:23;;;;;;;;;53.50;34.00;;;;;7.68;63.01;101531.22;5079059;28;45360;-42
2022/12/06 10:44:10;;;;;;;;;52.75;35.00;;;;;7.69;62.99;101532.13;5088665;27;45828;-44
2022/12/06 10:47:03;;;;;;;;;46.75;36.50;;;;;7.68;63.12;101525.16;5071154;27;46542;-41
2022/12/06 10:49:53;;;;;;;;;50.50;36.50;;;;;7.66;63.15;101530.38;5096328;27;45456;-40
2022/12/06 10:52:27;;;;;;;;;49.75;34.50;;;;;7.65;62.77;101526.03;5063955;28;45442;-43
2022/12/06 10:55:01;;;;;;;;;52.00;36.75;;;;;7.65;63.18;101519.94;5078808;27;45518;-41
2022/12/06 10:58:02;;;;;;;;;58.50;37.25;;;;;7.65;63.27;101519.94;5079712;27;46128;-42
2022/12/06 11:00:30;;;;;;;;;51.75;38.00;;;;;7.66;63.17;101525.16;5071653;28;45849;-42
2022/12/06 11:03:35;;;;;;;;;55.00;41.00;;;;;7.66;62.76;101521.69;5075205;28;45434;-41
2022/12/06 11:06:26;;;;;;;;;61.25;36.25;;;;;7.66;63.47;101519.94;5065765;28;45631;-42
2022/12/06 11:08:55;;;;;;;;;54.25;39.25;;;;;7.64;63.26;101521.69;5069917;27;46295;-43
2022/12/06 11:11:25;;;;;;;;;48.00;35.00;;;;;7.63;63.37;101512.13;5076806;28;45790;-41
2022/12/06 11:14:40;;;;;;;;;54.25;40.00;;;;;7.63;63.38;101512.13;5048121;28;45487;-41
2022/12/06 11:17:25;;;;;;;;;50.25;39.50;;;;;7.64;63.53;101513.88;5062509;28;45505;-42
2022/12/06 11:20:10;;;;;;;;;56.00;40.75;;;;;7.64;63.16;101505.22;5077667;27;45969;-43
2022/12/06 11:23:05;;;;;;;;;54.75;35.75;;;;;7.62;63.35;101502.59;5071286;28;45205;-43
2022/12/06 11:25:48;;;;;;;;;45.75;36.25;;;;;7.67;63.33;101511.28;5072857;28;45387;-41
2022/12/06 11:28:32;;;;;;;;;63.25;42.75;;;;;7.68;63.21;101505.19;5068332;28;45462;-41
2022/12/06 11:30:58;;;;;;;;;61.00;42.25;;;;;7.69;63.56;101511.28;5072784;28;45282;-42
2022/12/06 11:33:29;;;;;;;;;56.75;41.25;;;;;7.68;63.56;101510.38;5065269;28;62263;-42
2022/12/06 11:35:55;;;;;;;;;56.00;41.25;;;;;7.70;63.88;101506.06;5066935;28;45522;-41
2022/12/06 11:38:21;;;;;;;;;56.00;40.00;;;;;7.70;64.25;101499.97;5067327;28;63605;-44
2022/12/06 11:40:47;;;;;;;;;58.25;41.00;;;;;7.69;64.07;101496.50;5069479;27;53145;-41
2022/12/06 11:43:17;;;;;;;;;56.75;40.00;;;;;7.70;64.06;101493.03;5065429;28;45532;-42
2022/12/06 11:45:44;;;;;;;;;57.25;41.25;;;;;7.73;63.95;101494.75;5068921;28;45410;-42
2022/12/06 11:48:14;;;;;;;;;59.50;40.75;;;;;7.75;63.86;101493.00;5072393;28;45579;-41
2022/12/06 11:50:40;;;;;;;;;55.50;38.00;;;;;7.75;64.29;101482.59;5073997;28;45247;-42